createdAt,value
2023-05-06T00:02:08.384Z,64.47
2023-05-06T00:04:35.799Z,64.57
2023-05-06T00:07:02.490Z,64.67
2023-05-06T00:09:29.679Z,64.67
2023-05-06T00:11:56.422Z,64.69
2023-05-06T00:14:23.530Z,64.76
2023-05-06T00:16:50.420Z,64.91
2023-05-06T00:19:17.025Z,64.90
2023-05-06T00:21:43.547Z,65.06
2023-05-06T00:24:10.825Z,65.28
2023-05-06T00:26:37.424Z,65.48
2023-05-06T00:29:04.090Z,65.67
2023-05-06T00:31:30.833Z,66.00
2023-05-06T00:33:57.729Z,66.48
2023-05-06T00:36:24.509Z,67.06
2023-05-06T00:38:51.497Z,67.92
2023-05-06T00:41:18.645Z,68.75
2023-05-06T00:43:45.476Z,69.66
2023-05-06T00:46:12.631Z,70.92
2023-05-06T00:48:40.160Z,71.92
2023-05-06T00:51:06.903Z,72.69
2023-05-06T00:53:33.969Z,73.49
2023-05-06T00:56:00.979Z,73.91
2023-05-06T00:58:28.161Z,74.51
2023-05-06T01:00:55.780Z,75.01
2023-05-06T01:03:23.676Z,75.51
2023-05-06T01:06:03.788Z,76.07
2023-05-06T01:08:40.173Z,76.63
2023-05-06T01:11:14.006Z,77.22
2023-05-06T01:14:02.371Z,77.34
2023-05-06T01:16:30.250Z,77.62
2023-05-06T01:18:58.574Z,77.89
2023-05-06T01:21:34.119Z,78.06
2023-05-06T01:24:00.852Z,78.23
2023-05-06T01:26:27.706Z,78.88
2023-05-06T01:28:55.108Z,79.26
2023-05-06T01:31:35.690Z,79.65
2023-05-06T01:34:10.357Z,79.94
2023-05-06T01:36:53.087Z,80.24
2023-05-06T01:39:26.508Z,80.50
2023-05-06T01:41:53.512Z,80.61
2023-05-06T01:44:21.390Z,80.87
2023-05-06T01:46:48.202Z,81.20
2023-05-06T01:49:15.399Z,81.39
2023-05-06T01:51:50.793Z,81.74
2023-05-06T01:54:17.692Z,81.81
2023-05-06T01:56:44.902Z,81.97
2023-05-06T01:59:12.062Z,82.18
2023-05-06T02:01:38.876Z,82.23
2023-05-06T02:04:07.107Z,82.57
2023-05-06T02:06:34.448Z,82.97
2023-05-06T02:09:01.267Z,83.22
2023-05-06T02:11:29.463Z,83.54
2023-05-06T02:14:02.100Z,83.81
2023-05-06T02:16:30.843Z,84.13
2023-05-06T02:18:57.580Z,84.32
2023-05-06T02:21:24.358Z,84.69
2023-05-06T02:23:51.014Z,84.77
2023-05-06T02:26:17.751Z,84.98
2023-05-06T02:28:45.182Z,85.49
2023-05-06T02:31:14.352Z,85.86
2023-05-06T02:33:44.272Z,86.27
2023-05-06T02:36:11.349Z,86.86
2023-05-06T02:38:37.965Z,87.26
2023-05-06T02:41:04.792Z,87.36
2023-05-06T02:43:31.423Z,87.60
2023-05-06T02:45:58.395Z,88.03
2023-05-06T02:48:26.019Z,88.82
2023-05-06T02:50:52.648Z,89.76
2023-05-06T02:53:19.232Z,90.85
2023-05-06T02:55:46.364Z,91.82
2023-05-06T02:58:13.584Z,93.15
2023-05-06T03:00:40.357Z,94.33
2023-05-06T03:03:08.275Z,95.36
2023-05-06T03:05:36.097Z,96.34
2023-05-06T03:08:03.597Z,97.29
2023-05-06T03:10:32.478Z,98.39
2023-05-06T03:13:00.191Z,99.58
2023-05-06T03:15:27.810Z,100.00
2023-05-06T03:17:54.883Z,100.00
2023-05-06T03:20:22.172Z,100.00
2023-05-06T03:22:51.488Z,100.00
2023-05-06T03:26:45.893Z,100.00
2023-05-06T03:29:12.968Z,100.00
2023-05-06T03:31:41.940Z,100.00
2023-05-06T03:34:09.513Z,100.00
2023-05-06T03:36:36.525Z,100.00
2023-05-06T03:39:03.259Z,100.00
2023-05-06T03:41:30.859Z,100.00
2023-05-06T03:43:57.995Z,100.00
2023-05-06T03:46:26.307Z,100.00
2023-05-06T03:48:53.342Z,100.00
2023-05-06T03:51:20.992Z,100.00
2023-05-06T03:53:47.774Z,100.00
2023-05-06T03:56:17.883Z,100.00
2023-05-06T03:58:45.983Z,100.00
2023-05-06T04:01:12.833Z,100.00
2023-05-06T04:03:39.653Z,100.00
2023-05-06T04:06:07.243Z,100.00
2023-05-06T04:08:35.550Z,100.00
2023-05-06T04:11:06.288Z,100.00
2023-05-06T04:13:33.956Z,100.00
2023-05-06T04:16:03.664Z,100.00
2023-05-06T04:18:35.377Z,100.00
2023-05-06T04:21:07.097Z,100.00
2023-05-06T04:23:35.995Z,100.00
2023-05-06T04:26:03.372Z,100.00
2023-05-06T04:28:31.645Z,100.00
2023-05-06T04:30:58.523Z,100.00
2023-05-06T04:33:32.742Z,100.00
2023-05-06T04:36:01.016Z,100.00
2023-05-06T04:38:31.421Z,100.00
2023-05-06T04:40:59.012Z,100.00
2023-05-06T04:43:27.155Z,100.00
2023-05-06T04:45:57.674Z,100.00
2023-05-06T04:48:27.245Z,100.00
2023-05-06T04:50:56.192Z,100.00
2023-05-06T04:53:23.329Z,100.00
2023-05-06T04:55:50.372Z,100.00
2023-05-06T04:58:18.955Z,100.00
2023-05-06T05:00:46.191Z,100.00
2023-05-06T05:03:13.682Z,100.00
2023-05-06T05:05:40.423Z,100.00
2023-05-06T05:08:13.415Z,100.00
2023-05-06T05:10:42.924Z,100.00
2023-05-06T05:13:10.621Z,100.00
2023-05-06T05:15:38.635Z,100.00
2023-05-06T05:18:06.093Z,100.00
2023-05-06T05:20:33.531Z,100.00
2023-05-06T05:23:01.091Z,100.00
2023-05-06T05:25:28.643Z,100.00
2023-05-06T05:27:55.413Z,100.00
2023-05-06T05:30:22.285Z,100.00
2023-05-06T05:32:50.338Z,100.00
2023-05-06T05:35:17.759Z,100.00
2023-05-06T05:37:46.457Z,100.00
2023-05-06T05:40:13.957Z,100.00
2023-05-06T05:42:41.312Z,100.00
2023-05-06T05:45:14.640Z,100.00
2023-05-06T05:47:42.191Z,100.00
2023-05-06T05:50:09.445Z,100.00
2023-05-06T05:52:36.561Z,100.00
2023-05-06T05:55:04.097Z,100.00
2023-05-06T05:57:31.651Z,100.00
2023-05-06T05:59:58.550Z,100.00
2023-05-06T06:02:25.979Z,100.00
2023-05-06T06:04:52.926Z,100.00
2023-05-06T06:07:19.998Z,100.00
2023-05-06T06:09:48.253Z,100.00
2023-05-06T06:12:15.638Z,100.00
2023-05-06T06:14:47.388Z,100.00
2023-05-06T06:17:16.255Z,100.00
2023-05-06T06:19:46.499Z,100.00
2023-05-06T06:22:13.300Z,100.00
2023-05-06T06:24:40.533Z,100.00
2023-05-06T06:27:07.708Z,100.00
2023-05-06T06:29:35.505Z,100.00
2023-05-06T06:32:03.134Z,100.00
2023-05-06T06:34:30.412Z,100.00
2023-05-06T06:36:58.550Z,100.00
2023-05-06T06:39:25.798Z,100.00
2023-05-06T06:41:55.778Z,100.00
2023-05-06T06:44:22.625Z,100.00
2023-05-06T06:46:49.263Z,100.00
2023-05-06T06:49:16.255Z,100.00
2023-05-06T06:51:42.913Z,100.00
2023-05-06T06:54:09.870Z,100.00
2023-05-06T06:56:37.244Z,99.96
2023-05-06T06:59:04.096Z,99.66
2023-05-06T07:01:32.134Z,99.40
2023-05-06T07:03:58.863Z,99.36
2023-05-06T07:06:25.840Z,99.04
2023-05-06T07:08:52.511Z,98.90
2023-05-06T07:11:19.428Z,98.31
2023-05-06T07:13:46.231Z,98.47
2023-05-06T07:16:12.981Z,98.42
2023-05-06T07:18:39.648Z,97.94
2023-05-06T07:21:06.567Z,97.15
2023-05-06T07:23:35.320Z,95.52
2023-05-06T07:26:02.277Z,94.16
2023-05-06T07:28:29.296Z,92.97
2023-05-06T07:30:56.018Z,92.26
2023-05-06T07:33:22.711Z,91.71
2023-05-06T07:35:49.483Z,92.00
2023-05-06T07:38:16.363Z,91.89
2023-05-06T07:40:43.335Z,91.51
2023-05-06T07:43:10.298Z,91.56
2023-05-06T07:45:36.974Z,91.85
2023-05-06T07:48:03.874Z,91.94
2023-05-06T07:50:31.633Z,91.50
2023-05-06T07:52:59.433Z,91.25
2023-05-06T07:55:26.135Z,90.58
2023-05-06T07:57:53.205Z,89.88
2023-05-06T08:00:19.956Z,88.82
2023-05-06T08:02:48.074Z,88.65
2023-05-06T08:05:14.948Z,88.44
2023-05-06T08:07:41.955Z,87.85
2023-05-06T08:10:09.116Z,87.74
2023-05-06T08:12:36.795Z,87.53
2023-05-06T08:15:03.564Z,87.35
2023-05-06T08:17:31.041Z,87.38
2023-05-06T08:19:57.982Z,87.01
2023-05-06T08:22:24.670Z,85.68
2023-05-06T08:24:51.398Z,85.12
2023-05-06T08:27:17.993Z,84.82
2023-05-06T08:29:44.587Z,84.60
2023-05-06T08:32:12.983Z,84.34
2023-05-06T08:34:39.547Z,84.51
2023-05-06T08:37:06.855Z,84.26
2023-05-06T08:39:34.434Z,83.85
2023-05-06T08:42:01.536Z,82.91
2023-05-06T08:44:29.247Z,82.20
2023-05-06T08:46:56.085Z,81.78
2023-05-06T08:49:22.909Z,81.23
2023-05-06T08:51:51.697Z,81.03
2023-05-06T08:54:19.112Z,80.67
2023-05-06T08:56:49.982Z,80.42
2023-05-06T08:59:16.875Z,79.62
2023-05-06T09:01:43.678Z,79.24
2023-05-06T09:04:10.568Z,78.85
2023-05-06T09:06:37.321Z,78.23
2023-05-06T09:09:05.098Z,77.56
2023-05-06T09:11:32.039Z,76.50
2023-05-06T09:14:15.386Z,76.03
2023-05-06T09:16:46.393Z,74.71
2023-05-06T09:19:15.214Z,74.44
2023-05-06T09:21:43.687Z,73.83
2023-05-06T09:24:11.581Z,73.56
2023-05-06T09:26:42.165Z,73.23
2023-05-06T09:29:08.856Z,72.80
2023-05-06T09:31:45.868Z,72.25
2023-05-06T09:34:12.923Z,71.89
2023-05-06T09:36:39.555Z,71.28
2023-05-06T09:39:06.244Z,70.95
2023-05-06T09:41:33.215Z,70.59
2023-05-06T09:43:59.833Z,70.06
2023-05-06T09:46:29.806Z,69.08
2023-05-06T09:48:57.213Z,68.55
2023-05-06T09:51:24.282Z,68.42
2023-05-06T09:53:51.163Z,67.91
2023-05-06T09:56:18.460Z,67.33
2023-05-06T09:58:45.480Z,67.02
2023-05-06T10:01:25.210Z,66.99
2023-05-06T10:04:00.755Z,66.34
2023-05-06T10:06:27.715Z,65.46
2023-05-06T10:08:54.453Z,64.71
2023-05-06T10:11:21.234Z,64.37
2023-05-06T10:13:48.116Z,64.12
2023-05-06T10:16:15.800Z,63.96
2023-05-06T10:18:42.625Z,63.40
2023-05-06T10:21:16.666Z,62.95
2023-05-06T10:23:44.418Z,62.49
2023-05-06T10:26:11.424Z,61.68
2023-05-06T10:28:42.023Z,61.08
2023-05-06T10:31:11.043Z,60.07
2023-05-06T10:33:42.189Z,59.74
2023-05-06T10:36:31.558Z,59.38
2023-05-06T10:39:00.197Z,59.04
2023-05-06T10:41:27.373Z,58.73
2023-05-06T10:43:57.358Z,58.32
2023-05-06T10:46:26.021Z,57.60
2023-05-06T10:49:10.462Z,57.72
2023-05-06T10:51:41.507Z,56.82
2023-05-06T10:54:21.560Z,56.12
2023-05-06T10:56:48.464Z,55.64
2023-05-06T10:59:19.664Z,55.52
2023-05-06T11:01:54.193Z,54.99
2023-05-06T11:04:21.033Z,54.54
2023-05-06T11:06:49.019Z,54.16
2023-05-06T11:09:17.242Z,53.70
2023-05-06T11:12:03.342Z,53.40
2023-05-06T11:14:36.382Z,53.21
2023-05-06T11:17:07.417Z,53.07
2023-05-06T11:19:35.830Z,53.07
2023-05-06T11:22:03.946Z,52.48
2023-05-06T11:24:31.960Z,52.59
2023-05-06T11:26:59.298Z,51.99
2023-05-06T11:29:26.438Z,51.42
2023-05-06T11:31:55.811Z,50.72
2023-05-06T11:34:24.229Z,50.37
2023-05-06T11:37:02.137Z,50.05
2023-05-06T11:39:39.913Z,49.54
2023-05-06T11:42:08.420Z,49.37
2023-05-06T11:44:36.735Z,49.39
2023-05-06T11:47:05.283Z,49.13
2023-05-06T11:49:39.787Z,48.83
2023-05-06T11:52:10.200Z,48.15
2023-05-06T11:54:40.457Z,47.33
2023-05-06T11:57:08.046Z,46.79
2023-05-06T11:59:39.291Z,46.03
2023-05-06T12:02:12.114Z,45.67
2023-05-06T12:04:46.371Z,45.49
2023-05-06T12:07:14.573Z,45.73
2023-05-06T12:09:51.065Z,45.63
2023-05-06T12:12:21.520Z,45.41
2023-05-06T12:14:49.199Z,45.17
2023-05-06T12:17:16.149Z,45.00
2023-05-06T12:19:42.974Z,44.75
2023-05-06T12:22:15.676Z,44.39
2023-05-06T12:24:42.418Z,44.12
2023-05-06T12:27:09.074Z,43.72
2023-05-06T12:29:36.330Z,43.19
2023-05-06T12:32:08.699Z,42.38
2023-05-06T12:34:39.200Z,42.07
2023-05-06T12:37:09.112Z,42.20
2023-05-06T12:39:37.805Z,42.21
2023-05-06T12:42:05.237Z,42.56
2023-05-06T12:44:37.261Z,43.03
2023-05-06T12:47:06.921Z,43.06
2023-05-06T12:49:50.532Z,42.89
2023-05-06T12:52:18.766Z,42.90
2023-05-06T12:54:45.690Z,43.22
2023-05-06T12:57:12.984Z,43.35
2023-05-06T12:59:39.989Z,43.41
2023-05-06T13:02:06.946Z,43.67
2023-05-06T13:04:34.657Z,43.91
2023-05-06T13:07:01.568Z,44.07
2023-05-06T13:09:28.843Z,44.28
2023-05-06T13:11:55.545Z,44.53
2023-05-06T13:14:22.269Z,44.61
2023-05-06T13:16:48.992Z,44.93
2023-05-06T13:19:30.845Z,45.19
2023-05-06T13:21:59.931Z,45.50
2023-05-06T13:24:26.826Z,45.66
2023-05-06T13:26:55.523Z,45.75
2023-05-06T13:29:22.979Z,45.87
2023-05-06T13:31:50.320Z,45.94
2023-05-06T13:34:17.279Z,45.76
2023-05-06T13:36:43.982Z,45.64
2023-05-06T13:39:10.645Z,45.64
2023-05-06T13:41:37.254Z,45.79
2023-05-06T13:44:04.751Z,46.13
2023-05-06T13:46:32.200Z,46.38
2023-05-06T13:48:58.820Z,46.67
2023-05-06T13:51:28.659Z,46.93
2023-05-06T13:53:55.672Z,47.08
2023-05-06T13:56:22.424Z,47.20
2023-05-06T13:58:49.376Z,47.22
2023-05-06T14:01:16.171Z,47.18
2023-05-06T14:03:43.204Z,47.19
2023-05-06T14:06:10.895Z,47.34
2023-05-06T14:08:38.308Z,47.35
2023-05-06T14:11:04.896Z,47.52
2023-05-06T14:13:33.241Z,47.61
2023-05-06T14:15:59.849Z,47.74
2023-05-06T14:18:28.346Z,47.90
2023-05-06T14:20:55.765Z,48.10
2023-05-06T14:23:22.641Z,48.28
2023-05-06T14:25:49.179Z,48.42
2023-05-06T14:28:16.034Z,48.50
2023-05-06T14:30:43.001Z,48.79
2023-05-06T14:33:09.782Z,48.92
2023-05-06T14:35:41.590Z,49.19
2023-05-06T14:38:09.004Z,49.49
2023-05-06T14:40:36.371Z,50.12
2023-05-06T14:43:03.676Z,50.54
2023-05-06T14:45:30.863Z,50.86
2023-05-06T14:47:57.445Z,51.25
2023-05-06T14:50:24.468Z,51.72
2023-05-06T14:52:51.180Z,51.61
2023-05-06T14:55:19.661Z,51.44
2023-05-06T14:57:46.536Z,51.43
2023-05-06T15:00:14.116Z,51.45
2023-05-06T15:02:41.285Z,51.45
2023-05-06T15:05:09.500Z,51.43
2023-05-06T15:07:36.988Z,51.41
2023-05-06T15:10:03.901Z,51.33
2023-05-06T15:12:30.779Z,51.27
2023-05-06T15:14:57.732Z,51.34
2023-05-06T15:17:24.381Z,51.24
2023-05-06T15:19:51.274Z,51.06
2023-05-06T15:22:17.970Z,51.05
2023-05-06T15:24:44.923Z,51.03
2023-05-06T15:27:11.495Z,51.10
2023-05-06T15:29:41.239Z,51.36
2023-05-06T15:32:08.781Z,51.47
2023-05-06T15:34:36.102Z,51.42
2023-05-06T15:37:03.072Z,51.54
2023-05-06T15:39:35.132Z,51.56
2023-05-06T15:43:22.864Z,51.66
2023-05-06T15:45:50.460Z,51.76
2023-05-06T15:48:17.310Z,52.01
2023-05-06T15:50:44.145Z,52.36
2023-05-06T15:53:11.519Z,52.84
2023-05-06T15:55:46.590Z,53.77
2023-05-06T15:58:19.637Z,55.20
2023-05-06T16:00:46.381Z,56.19
2023-05-06T16:03:13.668Z,57.31
2023-05-06T16:05:41.043Z,58.27
2023-05-06T16:08:08.179Z,59.24
2023-05-06T16:10:35.550Z,60.07
2023-05-06T16:13:02.410Z,60.82
2023-05-06T16:15:29.180Z,61.50
2023-05-06T16:17:56.050Z,62.32
2023-05-06T16:20:22.916Z,62.92
2023-05-06T16:22:50.543Z,63.61
2023-05-06T16:25:17.547Z,64.08
2023-05-06T16:27:44.365Z,65.03
2023-05-06T16:30:11.715Z,65.46
2023-05-06T16:32:38.871Z,66.16
2023-05-06T16:35:06.292Z,66.80
2023-05-06T16:37:33.290Z,67.90
2023-05-06T16:40:00.444Z,68.67
2023-05-06T16:42:27.880Z,69.28
2023-05-06T16:44:55.365Z,70.16
2023-05-06T16:47:23.747Z,70.89
2023-05-06T16:49:51.170Z,72.31
2023-05-06T16:52:18.494Z,73.72
2023-05-06T16:54:45.602Z,75.35
2023-05-06T16:57:12.761Z,77.09
2023-05-06T16:59:39.585Z,78.14
2023-05-06T17:02:06.610Z,78.99
2023-05-06T17:04:33.488Z,80.03
2023-05-06T17:07:00.393Z,80.95
2023-05-06T17:09:27.233Z,81.98
2023-05-06T17:11:54.040Z,82.85
2023-05-06T17:14:20.894Z,83.96
2023-05-06T17:16:48.026Z,84.66
2023-05-06T17:19:14.942Z,85.35
2023-05-06T17:21:42.680Z,85.49
2023-05-06T17:24:09.651Z,85.63
2023-05-06T17:26:37.389Z,85.51
2023-05-06T17:29:04.197Z,85.28
2023-05-06T17:31:31.052Z,85.00
2023-05-06T17:33:57.880Z,84.54
2023-05-06T17:36:24.709Z,84.42
2023-05-06T17:39:07.410Z,84.13
2023-05-06T17:41:34.451Z,84.29
2023-05-06T17:44:01.561Z,84.58
2023-05-06T17:46:28.460Z,84.70
2023-05-06T17:48:55.527Z,84.34
2023-05-06T17:51:22.459Z,83.91
2023-05-06T17:53:49.580Z,83.70
2023-05-06T17:56:16.739Z,83.52
2023-05-06T17:58:43.527Z,83.07
2023-05-06T18:01:10.563Z,82.52
2023-05-06T18:03:39.294Z,81.95
2023-05-06T18:06:06.306Z,81.81
2023-05-06T18:08:33.229Z,81.37
2023-05-06T18:11:00.313Z,81.18
2023-05-06T18:13:27.398Z,80.65
2023-05-06T18:15:54.547Z,80.02
2023-05-06T18:18:21.512Z,79.91
2023-05-06T18:20:48.277Z,79.66
2023-05-06T18:23:15.099Z,79.54
2023-05-06T18:25:41.911Z,79.51
2023-05-06T18:28:08.708Z,79.52
2023-05-06T18:30:35.786Z,79.16
2023-05-06T18:33:02.522Z,79.10
2023-05-06T18:35:29.418Z,78.94
2023-05-06T18:37:56.179Z,79.14
2023-05-06T18:40:23.477Z,78.89
2023-05-06T18:42:50.244Z,78.85
2023-05-06T18:45:17.339Z,79.18
2023-05-06T18:47:44.332Z,79.79
2023-05-06T18:50:11.457Z,79.94
2023-05-06T18:52:38.602Z,80.21
2023-05-06T18:55:05.877Z,80.43
2023-05-06T18:57:32.638Z,80.33
2023-05-06T18:59:59.449Z,80.71
2023-05-06T19:02:26.967Z,80.65
2023-05-06T19:04:53.866Z,80.57
2023-05-06T19:07:20.675Z,80.15
2023-05-06T19:09:47.539Z,79.80
2023-05-06T19:12:15.187Z,79.57
2023-05-06T19:14:42.050Z,79.43
2023-05-06T19:17:08.928Z,79.52
2023-05-06T19:19:36.549Z,79.57
2023-05-06T19:22:04.226Z,79.82
2023-05-06T19:24:31.356Z,79.84
2023-05-06T19:26:58.217Z,79.99
2023-05-06T19:29:25.117Z,80.38
2023-05-06T19:31:52.097Z,80.35
2023-05-06T19:34:18.898Z,80.62
2023-05-06T19:36:46.508Z,81.26
2023-05-06T19:39:13.355Z,81.90
2023-05-06T19:41:40.080Z,82.14
2023-05-06T19:44:06.964Z,83.02
2023-05-06T19:46:33.799Z,84.74
2023-05-06T19:49:01.180Z,85.78
2023-05-06T19:51:28.465Z,87.36
2023-05-06T19:53:55.361Z,89.28
2023-05-06T19:56:22.463Z,91.60
2023-05-06T19:58:51.195Z,92.96
2023-05-06T20:01:22.650Z,94.73
2023-05-06T20:03:49.883Z,97.31
2023-05-06T20:06:17.290Z,98.98
2023-05-06T20:08:44.550Z,100.00
2023-05-06T20:11:11.542Z,100.00
2023-05-06T20:13:38.761Z,100.00
2023-05-06T20:16:07.029Z,100.00
2023-05-06T20:18:34.370Z,100.00
2023-05-06T20:21:01.337Z,100.00
2023-05-06T20:23:28.229Z,100.00
2023-05-06T20:25:55.785Z,100.00
2023-05-06T20:28:22.556Z,100.00
2023-05-06T20:30:49.335Z,100.00
2023-05-06T20:33:17.102Z,100.00
2023-05-06T20:35:44.129Z,100.00
2023-05-06T20:38:11.098Z,100.00
2023-05-06T20:40:38.087Z,100.00
2023-05-06T20:43:05.379Z,100.00
2023-05-06T20:45:32.443Z,100.00
2023-05-06T20:47:59.430Z,100.00
2023-05-06T20:50:26.583Z,100.00
2023-05-06T20:52:54.555Z,100.00
2023-05-06T20:55:23.466Z,100.00
2023-05-06T20:57:51.091Z,100.00
2023-05-06T21:00:18.859Z,100.00
2023-05-06T21:02:45.651Z,100.00
2023-05-06T21:05:12.843Z,100.00
2023-05-06T21:07:40.087Z,100.00
2023-05-06T21:10:07.677Z,100.00
2023-05-06T21:12:34.708Z,100.00
2023-05-06T21:15:01.656Z,100.00
2023-05-06T21:17:29.175Z,100.00
2023-05-06T21:19:56.461Z,100.00
2023-05-06T21:22:23.750Z,100.00
2023-05-06T21:24:51.460Z,100.00
2023-05-06T21:27:18.414Z,100.00
2023-05-06T21:29:45.477Z,100.00
2023-05-06T21:32:12.375Z,100.00
2023-05-06T21:34:39.360Z,100.00
2023-05-06T21:37:06.107Z,100.00
2023-05-06T21:39:33.022Z,100.00
2023-05-06T21:41:59.732Z,100.00
2023-05-06T21:44:26.420Z,100.00
2023-05-06T21:46:53.438Z,100.00
2023-05-06T21:49:22.248Z,100.00
2023-05-06T21:51:49.342Z,100.00
2023-05-06T21:54:17.371Z,100.00
2023-05-06T21:56:44.689Z,100.00
2023-05-06T21:59:11.657Z,100.00
2023-05-06T22:01:38.666Z,100.00
2023-05-06T22:04:11.478Z,100.00
2023-05-06T22:06:39.345Z,100.00
2023-05-06T22:09:09.762Z,100.00
2023-05-06T22:11:38.111Z,100.00
2023-05-06T22:14:06.782Z,100.00
2023-05-06T22:16:35.726Z,100.00
2023-05-06T22:19:04.138Z,100.00
2023-05-06T22:21:32.948Z,100.00
2023-05-06T22:24:00.193Z,100.00
2023-05-06T22:26:30.030Z,100.00
2023-05-06T22:28:57.922Z,100.00
2023-05-06T22:31:25.754Z,100.00
2023-05-06T22:33:57.557Z,100.00
2023-05-06T22:36:29.282Z,100.00
2023-05-06T22:38:56.636Z,100.00
2023-05-06T22:41:23.599Z,100.00
2023-05-06T22:43:50.749Z,100.00
2023-05-06T22:46:17.861Z,100.00
2023-05-06T22:48:44.776Z,100.00
2023-05-06T22:51:11.820Z,100.00
2023-05-06T22:53:38.668Z,100.00
2023-05-06T22:56:05.917Z,100.00
2023-05-06T22:58:32.853Z,100.00
2023-05-06T23:00:59.759Z,100.00
2023-05-06T23:03:26.607Z,100.00
2023-05-06T23:05:53.832Z,100.00
2023-05-06T23:08:21.278Z,100.00
2023-05-06T23:10:48.627Z,100.00
2023-05-06T23:13:15.475Z,100.00
2023-05-06T23:15:42.308Z,100.00
2023-05-06T23:18:09.152Z,100.00
2023-05-06T23:20:35.928Z,100.00
2023-05-06T23:23:02.643Z,100.00
2023-05-06T23:25:29.535Z,100.00
2023-05-06T23:27:56.573Z,100.00
2023-05-06T23:30:23.470Z,100.00
2023-05-06T23:32:50.302Z,100.00
2023-05-06T23:35:17.190Z,100.00
2023-05-06T23:37:43.973Z,100.00
2023-05-06T23:40:13.930Z,100.00
2023-05-06T23:42:40.942Z,100.00
2023-05-06T23:45:09.066Z,100.00
2023-05-06T23:47:36.259Z,100.00
2023-05-06T23:50:03.121Z,100.00
2023-05-06T23:52:29.931Z,100.00
2023-05-06T23:54:56.706Z,100.00
2023-05-06T23:57:23.484Z,100.00
2023-05-06T23:59:50.764Z,100.00
